createdAt,value
2016-02-18T00:00:23.936Z,0
2016-02-18T00:01:22.391Z,0
2016-02-18T00:02:22.409Z,0
2016-02-18T00:03:22.411Z,0
2016-02-18T00:04:22.447Z,0
2016-02-18T00:05:22.453Z,0
2016-02-18T00:06:22.456Z,0
2016-02-18T00:07:22.490Z,0
2016-02-18T00:08:22.476Z,0
2016-02-18T00:09:22.510Z,0
2016-02-18T00:10:22.513Z,0
2016-02-18T00:11:22.548Z,0
2016-02-18T00:12:22.581Z,0
2016-02-18T00:13:22.614Z,0
2016-02-18T00:14:22.603Z,0
2016-02-18T00:15:22.605Z,0
2016-02-18T00:16:22.608Z,0
2016-02-18T00:17:22.626Z,0
2016-02-18T00:18:22.675Z,0
2016-02-18T00:19:22.849Z,0
2016-02-18T00:20:22.712Z,0
2016-02-18T00:21:22.699Z,0
2016-02-18T00:22:22.702Z,0
2016-02-18T00:23:22.719Z,0
2016-02-18T00:24:22.754Z,0
2016-02-18T00:25:22.757Z,0
2016-02-18T00:26:22.774Z,0
2016-02-18T00:27:22.824Z,0
2016-02-18T00:28:22.796Z,0
2016-02-18T00:29:22.813Z,0
2016-02-18T00:30:22.817Z,0
2016-02-18T00:31:22.835Z,0
2016-02-18T00:32:22.869Z,0
2016-02-18T00:33:22.887Z,0
2016-02-18T00:34:22.890Z,0
2016-02-18T00:35:22.909Z,0
2016-02-18T00:36:22.911Z,0
2016-02-18T00:37:22.950Z,0
2016-02-18T00:38:22.937Z,0
2016-02-18T00:39:22.955Z,0
2016-02-18T00:40:23.005Z,0
2016-02-18T00:41:22.992Z,0
2016-02-18T00:42:23.010Z,0
2016-02-18T00:43:23.029Z,0
2016-02-18T00:44:23.031Z,0
2016-02-18T00:45:23.081Z,0
2016-02-18T00:46:23.067Z,0
2016-02-18T00:47:23.102Z,0
2016-02-18T00:48:23.120Z,0
2016-02-18T00:49:23.107Z,0
2016-02-18T00:50:23.157Z,0
2016-02-18T00:51:23.143Z,0
2016-02-18T00:52:23.177Z,0
2016-02-18T00:53:23.197Z,0
2016-02-18T00:54:23.183Z,0
2016-02-18T00:55:23.202Z,0
2016-02-18T00:56:23.235Z,0
2016-02-18T00:57:23.238Z,0
2016-02-18T00:58:23.256Z,0
2016-02-18T00:59:23.306Z,0
2016-02-18T01:00:23.277Z,0
2016-02-18T01:01:23.296Z,0
2016-02-18T01:02:23.189Z,0
2016-02-18T01:03:23.333Z,4
2016-02-18T01:04:23.460Z,4
2016-02-18T01:05:23.385Z,0
2016-02-18T01:06:23.356Z,0
2016-02-18T01:07:23.395Z,0
2016-02-18T01:08:23.429Z,0
2016-02-18T01:09:23.416Z,0
2016-02-18T01:10:23.450Z,0
2016-02-18T01:11:23.468Z,0
2016-02-18T01:12:23.455Z,0
2016-02-18T01:13:23.489Z,0
2016-02-18T01:14:23.492Z,0
2016-02-18T01:15:23.510Z,0
2016-02-18T01:16:23.528Z,0
2016-02-18T01:17:23.547Z,0
2016-02-18T01:18:23.550Z,0
2016-02-18T01:19:23.568Z,0
2016-02-18T01:20:23.586Z,0
2016-02-18T01:21:23.620Z,0
2016-02-18T01:22:23.607Z,0
2016-02-18T01:23:23.625Z,0
2016-02-18T01:24:23.660Z,0
2016-02-18T01:25:23.646Z,0
2016-02-18T01:26:23.679Z,0
2016-02-18T01:27:23.698Z,0
2016-02-18T01:28:23.685Z,0
2016-02-18T01:29:23.720Z,0
2016-02-18T01:30:23.738Z,0
2016-02-18T01:31:23.740Z,0
2016-02-18T01:32:23.774Z,0
2016-02-18T01:33:23.776Z,0
2016-02-18T01:34:23.796Z,0
2016-02-18T01:35:23.814Z,0
2016-02-18T01:36:23.831Z,0
2016-02-18T01:37:23.850Z,0
2016-02-18T01:38:23.884Z,0
2016-02-18T01:39:23.934Z,0
2016-02-18T01:40:23.890Z,0
2016-02-18T01:41:23.939Z,0
2016-02-18T01:42:23.911Z,0
2016-02-18T01:43:23.928Z,0
2016-02-18T01:44:23.932Z,0
2016-02-18T01:45:23.950Z,0
2016-02-18T01:46:23.999Z,0
2016-02-18T01:47:24.002Z,0
2016-02-18T01:48:24.005Z,0
2016-02-18T01:49:24.102Z,0
2016-02-18T01:50:24.042Z,0
2016-02-18T01:51:24.075Z,0
2016-02-18T01:52:24.078Z,0
2016-02-18T01:53:24.159Z,0
2016-02-18T01:54:24.178Z,0
2016-02-18T01:55:24.165Z,0
2016-02-18T01:56:24.292Z,0
2016-02-18T01:57:24.373Z,0
2016-02-18T01:58:24.157Z,0
2016-02-18T01:59:24.175Z,0
2016-02-18T02:00:24.193Z,0
2016-02-18T02:01:24.194Z,0
2016-02-18T02:02:24.200Z,0
2016-02-18T02:03:24.237Z,0
2016-02-18T02:04:24.413Z,0
2016-02-18T02:05:24.279Z,0
2016-02-18T02:06:24.255Z,0
2016-02-18T02:07:24.519Z,0
2016-02-18T02:08:24.392Z,0
2016-02-18T02:09:24.280Z,0
2016-02-18T02:10:24.263Z,0
2016-02-18T02:11:24.277Z,0
2016-02-18T02:12:24.278Z,0
2016-02-18T02:13:24.327Z,0
2016-02-18T02:14:24.296Z,0
2016-02-18T02:15:24.454Z,0
2016-02-18T02:16:24.393Z,0
2016-02-18T02:17:24.363Z,0
2016-02-18T02:18:24.366Z,0
2016-02-18T02:19:24.398Z,0
2016-02-18T02:20:24.385Z,0
2016-02-18T02:21:24.387Z,0
2016-02-18T02:22:24.421Z,0
2016-02-18T02:23:24.424Z,0
2016-02-18T02:24:24.441Z,0
2016-02-18T02:25:24.476Z,0
2016-02-18T02:26:24.479Z,0
2016-02-18T02:27:24.496Z,0
2016-02-18T02:28:24.531Z,0
2016-02-18T02:29:24.534Z,0
2016-02-18T02:30:24.536Z,0
2016-02-18T02:31:24.570Z,0
2016-02-18T02:32:24.573Z,0
2016-02-18T02:33:24.590Z,0
2016-02-18T02:34:24.626Z,0
2016-02-18T02:35:24.612Z,0
2016-02-18T02:36:24.631Z,0
2016-02-18T02:37:24.664Z,0
2016-02-18T02:38:24.667Z,0
2016-02-18T02:39:24.670Z,0
2016-02-18T02:40:24.704Z,0
2016-02-18T02:41:24.691Z,0
2016-02-18T02:42:24.772Z,0
2016-02-18T02:43:24.758Z,0
2016-02-18T02:44:24.742Z,0
2016-02-18T02:45:24.761Z,0
2016-02-18T02:46:24.795Z,0
2016-02-18T02:47:24.813Z,0
2016-02-18T02:48:24.816Z,0
2016-02-18T02:49:24.835Z,0
2016-02-18T02:50:24.838Z,0
2016-02-18T02:51:24.855Z,0
2016-02-18T02:52:24.889Z,0
2016-02-18T02:53:24.891Z,0
2016-02-18T02:54:24.894Z,0
2016-02-18T02:55:24.960Z,0
2016-02-18T02:56:24.916Z,0
2016-02-18T02:57:24.950Z,0
2016-02-18T02:58:24.999Z,0
2016-02-18T02:59:24.971Z,0
2016-02-18T03:00:24.990Z,0
2016-02-18T03:01:25.008Z,0
2016-02-18T03:02:25.026Z,0
2016-02-18T03:03:25.044Z,0
2016-02-18T03:04:25.032Z,0
2016-02-18T03:05:25.065Z,0
2016-02-18T03:06:25.084Z,0
2016-02-18T03:07:25.102Z,0
2016-02-18T03:08:25.121Z,0
2016-02-18T03:09:25.139Z,0
2016-02-18T03:10:25.142Z,0
2016-02-18T03:11:25.160Z,0
2016-02-18T03:12:25.193Z,0
2016-02-18T03:13:25.180Z,0
2016-02-18T03:14:25.198Z,0
2016-02-18T03:15:25.233Z,0
2016-02-18T03:16:25.220Z,0
2016-02-18T03:17:25.238Z,0
2016-02-18T03:18:25.272Z,0
2016-02-18T03:19:25.274Z,0
2016-02-18T03:20:25.293Z,0
2016-02-18T03:21:25.296Z,0
2016-02-18T03:22:25.330Z,0
2016-02-18T03:23:25.348Z,0
2016-02-18T03:24:25.350Z,0
2016-02-18T03:25:25.369Z,0
2016-02-18T03:26:25.372Z,0
2016-02-18T03:27:25.390Z,0
2016-02-18T03:28:25.424Z,0
2016-02-18T03:29:25.427Z,0
2016-02-18T03:30:25.289Z,0
2016-02-18T03:31:25.480Z,0
2016-02-18T03:32:25.466Z,0
2016-02-18T03:33:25.485Z,0
2016-02-18T03:34:25.535Z,0
2016-02-18T03:35:25.505Z,0
2016-02-18T03:36:25.524Z,0
2016-02-18T03:37:25.543Z,0
2016-02-18T03:38:25.560Z,0
2016-02-18T03:39:25.579Z,0
2016-02-18T03:40:25.582Z,0
2016-02-18T03:41:25.601Z,0
2016-02-18T03:42:25.634Z,0
2016-02-18T03:43:25.637Z,0
2016-02-18T03:44:25.654Z,0
2016-02-18T03:45:25.704Z,0
2016-02-18T03:46:25.676Z,0
2016-02-18T03:47:25.538Z,0
2016-02-18T03:48:25.744Z,0
2016-02-18T03:49:25.715Z,0
2016-02-18T03:50:25.764Z,0
2016-02-18T03:51:25.752Z,0
2016-02-18T03:52:25.785Z,0
2016-02-18T03:53:25.804Z,0
2016-02-18T03:54:25.853Z,0
2016-02-18T03:55:25.825Z,0
2016-02-18T03:56:25.859Z,0
2016-02-18T03:57:25.877Z,0
2016-02-18T03:58:25.864Z,0
2016-02-18T03:59:25.866Z,0
2016-02-18T04:00:25.885Z,0
2016-02-18T04:01:25.919Z,0
2016-02-18T04:02:25.921Z,0
2016-02-18T04:03:25.924Z,0
2016-02-18T04:04:25.975Z,0
2016-02-18T04:05:25.961Z,0
2016-02-18T04:06:25.980Z,0
2016-02-18T04:07:26.014Z,0
2016-02-18T04:08:26.002Z,0
2016-02-18T04:09:26.035Z,0
2016-02-18T04:10:26.054Z,0
2016-02-18T04:11:26.057Z,0
2016-02-18T04:12:26.075Z,0
2016-02-18T04:13:26.108Z,0
2016-02-18T04:14:26.096Z,0
2016-02-18T04:15:26.129Z,0
2016-02-18T04:16:26.148Z,0
2016-02-18T04:17:26.150Z,0
2016-02-18T04:18:26.169Z,0
2016-02-18T04:19:26.204Z,0
2016-02-18T04:20:26.206Z,0
2016-02-18T04:21:26.209Z,0
2016-02-18T04:22:26.211Z,0
2016-02-18T04:23:26.245Z,0
2016-02-18T04:24:26.278Z,0
2016-02-18T04:25:26.265Z,0
2016-02-18T04:26:26.284Z,0
2016-02-18T04:27:26.318Z,0
2016-02-18T04:28:26.321Z,0
2016-02-18T04:29:26.339Z,0
2016-02-18T04:30:26.342Z,0
2016-02-18T04:31:26.360Z,0
2016-02-18T04:32:26.409Z,0
2016-02-18T04:33:26.396Z,0
2016-02-18T04:34:26.431Z,0
2016-02-18T04:35:26.450Z,0
2016-02-18T04:36:26.420Z,0
2016-02-18T04:37:26.298Z,0
2016-02-18T04:38:26.457Z,0
2016-02-18T04:39:26.491Z,0
2016-02-18T04:40:26.509Z,0
2016-02-18T04:41:26.496Z,0
2016-02-18T04:42:26.531Z,0
2016-02-18T04:43:26.563Z,0
2016-02-18T04:44:26.552Z,0
2016-02-18T04:45:26.586Z,0
2016-02-18T04:46:26.588Z,0
2016-02-18T04:47:26.621Z,0
2016-02-18T04:48:26.640Z,0
2016-02-18T04:49:25.893Z,0
2016-02-18T04:50:26.661Z,0
2016-02-18T04:51:26.679Z,0
2016-02-18T04:52:26.667Z,0
2016-02-18T04:53:26.701Z,0
2016-02-18T04:54:26.719Z,0
2016-02-18T04:55:26.721Z,0
2016-02-18T04:56:26.740Z,0
2016-02-18T04:57:26.742Z,0
2016-02-18T04:58:26.761Z,0
2016-02-18T04:59:26.794Z,0
2016-02-18T05:00:26.781Z,0
2016-02-18T05:01:26.817Z,0
2016-02-18T05:02:27.037Z,0
2016-02-18T05:03:27.160Z,0
2016-02-18T05:04:27.527Z,0
2016-02-18T05:05:27.000Z,0
2016-02-18T05:06:26.895Z,0
2016-02-18T05:07:26.913Z,0
2016-02-18T05:08:26.915Z,0
2016-02-18T05:09:26.933Z,0
2016-02-18T05:10:26.969Z,0
2016-02-18T05:11:26.971Z,0
2016-02-18T05:12:26.849Z,0
2016-02-18T05:13:26.977Z,0
2016-02-18T05:14:26.994Z,0
2016-02-18T05:15:27.049Z,0
2016-02-18T05:16:27.035Z,0
2016-02-18T05:17:27.038Z,0
2016-02-18T05:18:27.072Z,0
2016-02-18T05:19:27.076Z,0
2016-02-18T05:20:27.094Z,0
2016-02-18T05:21:27.096Z,0
2016-02-18T05:22:27.130Z,0
2016-02-18T05:23:27.132Z,0
2016-02-18T05:24:27.151Z,0
2016-02-18T05:25:27.184Z,0
2016-02-18T05:26:27.172Z,0
2016-02-18T05:27:27.206Z,0
2016-02-18T05:28:27.240Z,0
2016-02-18T05:29:27.228Z,0
2016-02-18T05:30:27.245Z,0
2016-02-18T05:31:27.139Z,0
2016-02-18T05:32:27.266Z,0
2016-02-18T05:33:27.284Z,0
2016-02-18T05:34:27.302Z,0
2016-02-18T05:35:27.305Z,0
2016-02-18T05:36:27.325Z,0
2016-02-18T05:37:27.374Z,0
2016-02-18T05:38:27.361Z,0
2016-02-18T05:39:27.379Z,0
2016-02-18T05:40:27.413Z,0
2016-02-18T05:41:27.416Z,0
2016-02-18T05:42:27.418Z,0
2016-02-18T05:43:27.468Z,0
2016-02-18T05:44:27.454Z,0
2016-02-18T05:45:27.473Z,0
2016-02-18T05:46:27.492Z,0
2016-02-18T05:47:27.494Z,0
2016-02-18T05:48:27.529Z,0
2016-02-18T05:49:27.531Z,0
2016-02-18T05:50:27.534Z,0
2016-02-18T05:51:27.551Z,0
2016-02-18T05:52:27.570Z,0
2016-02-18T05:53:27.604Z,0
2016-02-18T05:54:27.607Z,0
2016-02-18T05:55:27.641Z,0
2016-02-18T05:56:27.659Z,0
2016-02-18T05:57:27.662Z,0
2016-02-18T05:58:27.664Z,0
2016-02-18T05:59:27.714Z,0
2016-02-18T06:00:27.686Z,0
2016-02-18T06:01:27.719Z,0
2016-02-18T06:02:27.738Z,0
2016-02-18T06:03:27.725Z,0
2016-02-18T06:04:27.743Z,4
2016-02-18T06:05:27.624Z,4
2016-02-18T06:06:27.784Z,0
2016-02-18T06:07:27.802Z,0
2016-02-18T06:08:27.835Z,4
2016-02-18T06:09:27.823Z,4
2016-02-18T06:10:27.856Z,4
2016-02-18T06:11:27.859Z,8
2016-02-18T06:12:27.863Z,4
2016-02-18T06:13:27.943Z,4
2016-02-18T06:14:27.899Z,8
2016-02-18T06:15:27.917Z,8
2016-02-18T06:16:27.982Z,8
2016-02-18T06:17:27.953Z,8
2016-02-18T06:18:27.956Z,8
2016-02-18T06:19:28.022Z,12
2016-02-18T06:20:27.993Z,12
2016-02-18T06:21:28.028Z,12
2016-02-18T06:22:28.061Z,16
2016-02-18T06:23:28.033Z,12
2016-02-18T06:24:28.066Z,20
2016-02-18T06:25:28.069Z,16
2016-02-18T06:26:27.946Z,16
2016-02-18T06:27:28.105Z,20
2016-02-18T06:28:28.125Z,24
2016-02-18T06:29:28.127Z,24
2016-02-18T06:30:28.161Z,24
2016-02-18T06:31:28.163Z,24
2016-02-18T06:32:28.197Z,28
2016-02-18T06:33:28.184Z,28
2016-02-18T06:34:28.219Z,32
2016-02-18T06:35:28.237Z,32
2016-02-18T06:36:28.240Z,32
2016-02-18T06:37:28.274Z,36
2016-02-18T06:38:28.277Z,36
2016-02-18T06:39:28.279Z,40
2016-02-18T06:40:28.329Z,40
2016-02-18T06:41:28.347Z,44
2016-02-18T06:42:28.334Z,48
2016-02-18T06:43:28.337Z,48
2016-02-18T06:44:28.354Z,52
2016-02-18T06:45:28.389Z,52
2016-02-18T06:46:28.391Z,60
2016-02-18T06:47:28.410Z,68
2016-02-18T06:48:28.443Z,76
2016-02-18T06:49:28.431Z,80
2016-02-18T06:50:28.448Z,80
2016-02-18T06:51:28.483Z,84
2016-02-18T06:52:28.486Z,88
2016-02-18T06:53:28.503Z,92
2016-02-18T06:54:28.506Z,100
2016-02-18T06:55:28.525Z,92
2016-02-18T06:56:28.544Z,92
2016-02-18T06:57:28.561Z,96
2016-02-18T06:58:28.564Z,104
2016-02-18T06:59:28.598Z,104
2016-02-18T07:00:28.600Z,104
2016-02-18T07:01:28.635Z,108
2016-02-18T07:02:28.621Z,112
2016-02-18T07:03:28.641Z,124
2016-02-18T07:04:28.502Z,128
2016-02-18T07:05:28.693Z,128
2016-02-18T07:06:28.679Z,136
2016-02-18T07:07:28.713Z,136
2016-02-18T07:08:28.779Z,140
2016-02-18T07:09:28.734Z,148
2016-02-18T07:10:28.784Z,156
2016-02-18T07:11:28.787Z,160
2016-02-18T07:12:28.774Z,160
2016-02-18T07:13:28.823Z,172
2016-02-18T07:14:28.826Z,180
2016-02-18T07:15:28.829Z,196
2016-02-18T07:16:28.847Z,200
2016-02-18T07:17:28.865Z,200
2016-02-18T07:18:28.867Z,216
2016-02-18T07:19:28.901Z,224
2016-02-18T07:20:28.951Z,244
2016-02-18T07:21:28.938Z,232
2016-02-18T07:22:28.942Z,236
2016-02-18T07:23:28.959Z,228
2016-02-18T07:24:28.962Z,216
2016-02-18T07:25:28.997Z,228
2016-02-18T07:26:29.014Z,244
2016-02-18T07:27:29.017Z,260
2016-02-18T07:28:29.035Z,304
2016-02-18T07:29:28.944Z,340
2016-02-18T07:30:29.056Z,312
2016-02-18T07:31:28.918Z,312
2016-02-18T07:32:29.108Z,316
2016-02-18T07:33:29.096Z,316
2016-02-18T07:34:29.129Z,332
2016-02-18T07:35:29.132Z,336
2016-02-18T07:36:29.151Z,348
2016-02-18T07:37:29.168Z,372
2016-02-18T07:38:29.172Z,372
2016-02-18T07:39:29.190Z,392
2016-02-18T07:40:29.240Z,408
2016-02-18T07:41:29.227Z,420
2016-02-18T07:42:29.245Z,436
2016-02-18T07:43:29.295Z,484
2016-02-18T07:44:29.266Z,516
2016-02-18T07:45:29.331Z,500
2016-02-18T07:46:29.318Z,528
2016-02-18T07:47:29.305Z,508
2016-02-18T07:48:29.323Z,524
2016-02-18T07:49:29.358Z,532
2016-02-18T07:50:29.360Z,540
2016-02-18T07:51:29.379Z,524
2016-02-18T07:52:29.412Z,540
2016-02-18T07:53:29.400Z,544
2016-02-18T07:54:29.417Z,572
2016-02-18T07:55:29.452Z,576
2016-02-18T07:56:29.454Z,584
2016-02-18T07:57:29.458Z,612
2016-02-18T07:58:29.523Z,584
2016-02-18T07:59:29.494Z,600
2016-02-18T08:00:29.528Z,600
2016-02-18T08:01:29.514Z,600
2016-02-18T08:02:29.549Z,616
2016-02-18T08:03:29.566Z,648
2016-02-18T08:04:29.569Z,648
2016-02-18T08:05:29.589Z,676
2016-02-18T08:06:29.637Z,716
2016-02-18T08:07:29.624Z,680
2016-02-18T08:08:29.644Z,672
2016-02-18T08:09:29.755Z,668
2016-02-18T08:10:29.680Z,660
2016-02-18T08:11:29.698Z,616
2016-02-18T08:12:29.701Z,652
2016-02-18T08:13:29.718Z,704
2016-02-18T08:14:29.721Z,684
2016-02-18T08:15:29.756Z,652
2016-02-18T08:16:29.774Z,660
2016-02-18T08:17:29.776Z,628
2016-02-18T08:18:29.795Z,636
2016-02-18T08:19:29.798Z,684
2016-02-18T08:20:29.832Z,732
2016-02-18T08:21:29.850Z,756
2016-02-18T08:22:29.868Z,796
2016-02-18T08:23:29.871Z,832
2016-02-18T08:24:30.108Z,816
2016-02-18T08:25:29.907Z,856
2016-02-18T08:26:29.925Z,852
2016-02-18T08:27:29.944Z,836
2016-02-18T08:28:29.947Z,792
2016-02-18T08:29:29.964Z,792
2016-02-18T08:30:29.984Z,784
2016-02-18T08:31:30.017Z,844
2016-02-18T08:32:30.020Z,856
2016-02-18T08:33:30.023Z,868
2016-02-18T08:34:30.057Z,860
2016-02-18T08:35:30.060Z,880
2016-02-18T08:36:30.094Z,872
2016-02-18T08:37:30.096Z,860
2016-02-18T08:38:30.114Z,856
2016-02-18T08:39:30.132Z,892
2016-02-18T08:40:30.135Z,960
2016-02-18T08:41:30.185Z,928
2016-02-18T08:42:30.171Z,916
2016-02-18T08:43:30.190Z,940
2016-02-18T08:44:30.193Z,932
2016-02-18T08:45:30.227Z,872
2016-02-18T08:46:30.246Z,852
2016-02-18T08:47:30.263Z,876
2016-02-18T08:48:30.266Z,880
2016-02-18T08:49:30.284Z,916
2016-02-18T08:50:30.303Z,976
2016-02-18T08:51:30.321Z,1004
2016-02-18T08:52:30.339Z,972
2016-02-18T08:53:30.358Z,936
2016-02-18T08:54:30.375Z,980
2016-02-18T08:55:30.378Z,1012
2016-02-18T08:56:30.398Z,1028
2016-02-18T08:57:30.400Z,996
2016-02-18T08:58:30.450Z,968
2016-02-18T08:59:30.453Z,1040
2016-02-18T09:00:30.455Z,1144
2016-02-18T09:01:30.473Z,988
2016-02-18T09:02:30.508Z,624
2016-02-18T09:03:30.510Z,496
2016-02-18T09:04:30.528Z,396
2016-02-18T09:05:30.530Z,396
2016-02-18T09:06:30.565Z,396
2016-02-18T09:07:30.567Z,384
2016-02-18T09:08:30.586Z,380
2016-02-18T09:09:30.605Z,384
2016-02-18T09:10:30.622Z,392
2016-02-18T09:11:30.640Z,372
2016-02-18T09:12:30.674Z,384
2016-02-18T09:13:30.662Z,388
2016-02-18T09:14:30.680Z,396
2016-02-18T09:15:30.729Z,392
2016-02-18T09:16:30.716Z,392
2016-02-18T09:17:30.735Z,400
2016-02-18T09:18:30.754Z,396
2016-02-18T09:19:30.771Z,396
2016-02-18T09:20:30.790Z,388
2016-02-18T09:21:30.793Z,384
2016-02-18T09:22:30.826Z,372
2016-02-18T09:23:30.845Z,372
2016-02-18T09:24:30.848Z,368
2016-02-18T09:25:30.865Z,372
2016-02-18T09:26:30.868Z,364
2016-02-18T09:27:30.902Z,368
2016-02-18T09:28:30.906Z,368
2016-02-18T09:29:30.923Z,368
2016-02-18T09:30:30.942Z,364
2016-02-18T09:31:30.961Z,368
2016-02-18T09:32:30.978Z,364
2016-02-18T09:33:30.997Z,364
2016-02-18T09:34:31.015Z,372
2016-02-18T09:35:31.017Z,368
2016-02-18T09:36:31.052Z,360
2016-02-18T09:37:31.054Z,364
2016-02-18T09:38:31.072Z,368
2016-02-18T09:39:31.091Z,372
2016-02-18T09:40:31.094Z,364
2016-02-18T09:41:31.128Z,368
2016-02-18T09:42:31.146Z,372
2016-02-18T09:43:31.149Z,376
2016-02-18T09:44:31.167Z,372
2016-02-18T09:45:31.185Z,376
2016-02-18T09:46:31.219Z,380
2016-02-18T09:47:31.221Z,380
2016-02-18T09:48:31.240Z,384
2016-02-18T09:49:31.242Z,392
2016-02-18T09:50:31.277Z,392
2016-02-18T09:51:31.296Z,388
2016-02-18T09:52:31.298Z,392
2016-02-18T09:53:31.316Z,392
2016-02-18T09:54:31.335Z,396
2016-02-18T09:55:31.181Z,388
2016-02-18T09:56:31.231Z,392
2016-02-18T09:57:31.389Z,396
2016-02-18T09:58:31.392Z,400
2016-02-18T09:59:31.441Z,400
2016-02-18T10:00:30.694Z,400
2016-02-18T10:01:31.463Z,412
2016-02-18T10:02:31.481Z,408
2016-02-18T10:03:31.484Z,412
2016-02-18T10:04:31.502Z,416
2016-02-18T10:05:31.520Z,424
2016-02-18T10:06:31.616Z,436
2016-02-18T10:07:31.557Z,436
2016-02-18T10:08:31.575Z,448
2016-02-18T10:09:31.577Z,444
2016-02-18T10:10:31.674Z,440
2016-02-18T10:11:31.630Z,448
2016-02-18T10:12:31.633Z,452
2016-02-18T10:13:31.652Z,444
2016-02-18T10:14:31.685Z,444
2016-02-18T10:15:31.688Z,452
2016-02-18T10:16:31.706Z,452
2016-02-18T10:17:31.724Z,456
2016-02-18T10:18:31.743Z,460
2016-02-18T10:19:31.761Z,468
2016-02-18T10:20:31.811Z,480
2016-02-18T10:21:31.782Z,480
2016-02-18T10:22:31.800Z,492
2016-02-18T10:23:31.819Z,496
2016-02-18T10:24:31.837Z,500
2016-02-18T10:25:31.856Z,500
2016-02-18T10:26:31.873Z,516
2016-02-18T10:27:31.892Z,532
2016-02-18T10:28:31.895Z,524
2016-02-18T10:29:31.944Z,532
2016-02-18T10:30:31.931Z,536
2016-02-18T10:31:31.950Z,592
2016-02-18T10:32:31.984Z,612
2016-02-18T10:33:31.986Z,556
2016-02-18T10:34:32.005Z,552
2016-02-18T10:35:32.023Z,544
2016-02-18T10:36:32.042Z,544
2016-02-18T10:37:32.075Z,548
2016-02-18T10:38:32.078Z,572
2016-02-18T10:39:32.080Z,728
2016-02-18T10:40:32.099Z,1072
2016-02-18T10:41:32.116Z,908
2016-02-18T10:42:32.183Z,736
2016-02-18T10:43:32.169Z,756
2016-02-18T10:44:32.172Z,628
2016-02-18T10:45:32.191Z,588
2016-02-18T10:46:32.224Z,584
2016-02-18T10:47:32.243Z,576
2016-02-18T10:48:32.245Z,576
2016-02-18T10:49:32.263Z,592
2016-02-18T10:50:32.266Z,600
2016-02-18T10:51:32.300Z,612
2016-02-18T10:52:32.303Z,628
2016-02-18T10:53:32.352Z,632
2016-02-18T10:54:32.355Z,620
2016-02-18T10:55:32.358Z,612
2016-02-18T10:56:32.376Z,616
2016-02-18T10:57:32.395Z,612
2016-02-18T10:58:32.412Z,612
2016-02-18T10:59:32.431Z,608
2016-02-18T11:00:32.308Z,620
2016-02-18T11:01:32.468Z,632
2016-02-18T11:02:32.487Z,628
2016-02-18T11:03:32.520Z,648
2016-02-18T11:04:32.554Z,728
2016-02-18T11:05:32.526Z,776
2016-02-18T11:06:32.544Z,732
2016-02-18T11:07:32.578Z,748
2016-02-18T11:08:32.571Z,900
2016-02-18T11:09:32.593Z,1292
2016-02-18T11:10:32.599Z,1068
2016-02-18T11:11:32.590Z,728
2016-02-18T11:12:32.597Z,684
2016-02-18T11:13:32.625Z,676
2016-02-18T11:14:32.639Z,712
2016-02-18T11:15:32.637Z,660
2016-02-18T11:16:32.682Z,632
2016-02-18T11:17:32.681Z,732
2016-02-18T11:18:32.698Z,692
2016-02-18T11:19:32.698Z,696
2016-02-18T11:20:32.714Z,728
2016-02-18T11:21:32.732Z,752
2016-02-18T11:22:32.764Z,896
2016-02-18T11:23:32.766Z,820
2016-02-18T11:24:32.783Z,832
2016-02-18T11:25:32.816Z,952
2016-02-18T11:26:32.819Z,1384
2016-02-18T11:27:32.836Z,1400
2016-02-18T11:28:32.854Z,912
2016-02-18T11:29:32.872Z,704
2016-02-18T11:30:32.890Z,552
2016-02-18T11:31:32.908Z,560
2016-02-18T11:32:32.926Z,564
2016-02-18T11:33:32.945Z,568
2016-02-18T11:34:32.962Z,644
2016-02-18T11:35:32.981Z,664
2016-02-18T11:36:32.998Z,1056
2016-02-18T11:37:33.017Z,1492
2016-02-18T11:38:33.036Z,1428
2016-02-18T11:39:33.039Z,1452
2016-02-18T11:40:33.089Z,1424
2016-02-18T11:41:33.091Z,1724
2016-02-18T11:42:33.094Z,2116
2016-02-18T11:43:33.127Z,2076
2016-02-18T11:44:33.145Z,1692
2016-02-18T11:45:33.164Z,1432
2016-02-18T11:46:33.182Z,1192
2016-02-18T11:47:33.201Z,1232
2016-02-18T11:48:33.219Z,1576
2016-02-18T11:49:33.252Z,1228
2016-02-18T11:50:33.256Z,1288
2016-02-18T11:51:33.274Z,1136
2016-02-18T11:52:33.308Z,928
2016-02-18T11:53:33.310Z,964
2016-02-18T11:54:33.344Z,1020
2016-02-18T11:55:33.207Z,1140
2016-02-18T11:56:33.365Z,1412
2016-02-18T11:57:33.399Z,1544
2016-02-18T11:58:33.418Z,1492
2016-02-18T11:59:33.421Z,1452
2016-02-18T12:00:33.454Z,1564
2016-02-18T12:01:33.473Z,1488
2016-02-18T12:02:33.475Z,1180
2016-02-18T12:03:33.509Z,1252
2016-02-18T12:04:33.528Z,1368
2016-02-18T12:05:33.545Z,1384
2016-02-18T12:06:33.565Z,1188
2016-02-18T12:07:33.567Z,1116
2016-02-18T12:08:33.601Z,1168
2016-02-18T12:09:33.634Z,1244
2016-02-18T12:10:33.622Z,1252
2016-02-18T12:11:33.656Z,1128
2016-02-18T12:12:33.690Z,1068
2016-02-18T12:13:33.692Z,1176
2016-02-18T12:14:33.711Z,1488
2016-02-18T12:15:33.744Z,1496
2016-02-18T12:16:33.747Z,1532
2016-02-18T12:17:33.766Z,1344
2016-02-18T12:18:33.816Z,1256
2016-02-18T12:19:33.802Z,1308
2016-02-18T12:20:33.836Z,1280
2016-02-18T12:21:33.870Z,1192
2016-02-18T12:22:33.857Z,1416
2016-02-18T12:23:33.891Z,1292
2016-02-18T12:24:33.893Z,1220
2016-02-18T12:25:33.913Z,1280
2016-02-18T12:26:33.946Z,1260
2016-02-18T12:27:33.965Z,1348
2016-02-18T12:28:33.968Z,1224
2016-02-18T12:29:34.001Z,1544
2016-02-18T12:30:34.051Z,1688
2016-02-18T12:31:34.037Z,1668
2016-02-18T12:32:34.056Z,1660
2016-02-18T12:33:34.074Z,1560
2016-02-18T12:34:34.109Z,1612
2016-02-18T12:35:34.127Z,1584
2016-02-18T12:36:34.129Z,1600
2016-02-18T12:37:34.148Z,1524
2016-02-18T12:38:34.181Z,1448
2016-02-18T12:39:34.184Z,1664
2016-02-18T12:40:34.203Z,1700
2016-02-18T12:41:34.253Z,1436
2016-02-18T12:42:34.255Z,1464
2016-02-18T12:43:34.272Z,1564
2016-02-18T12:44:34.307Z,1620
2016-02-18T12:45:34.310Z,1556
2016-02-18T12:46:34.328Z,1528
2016-02-18T12:47:34.378Z,1344
2016-02-18T12:48:34.364Z,1324
2016-02-18T12:49:34.383Z,1284
2016-02-18T12:50:34.401Z,1320
2016-02-18T12:51:34.435Z,1176
2016-02-18T12:52:34.439Z,1180
2016-02-18T12:53:34.488Z,1124
2016-02-18T12:54:34.553Z,1008
2016-02-18T12:55:34.508Z,952
2016-02-18T12:56:34.527Z,944
2016-02-18T12:57:34.545Z,908
2016-02-18T12:58:34.563Z,892
2016-02-18T12:59:34.596Z,896
2016-02-18T13:00:34.600Z,892
2016-02-18T13:01:34.635Z,828
2016-02-18T13:02:34.668Z,760
2016-02-18T13:03:34.655Z,796
2016-02-18T13:04:34.721Z,820
2016-02-18T13:05:34.723Z,816
2016-02-18T13:06:34.726Z,832
2016-02-18T13:07:34.743Z,796
2016-02-18T13:08:34.762Z,788
2016-02-18T13:09:34.796Z,828
2016-02-18T13:10:34.830Z,892
2016-02-18T13:11:34.818Z,996
2016-02-18T13:12:34.836Z,1208
2016-02-18T13:13:34.854Z,1416
2016-02-18T13:14:34.887Z,1600
2016-02-18T13:15:34.922Z,1688
2016-02-18T13:16:34.924Z,1616
2016-02-18T13:17:34.942Z,1496
2016-02-18T13:18:34.977Z,1420
2016-02-18T13:19:34.980Z,1492
2016-02-18T13:20:35.014Z,1556
2016-02-18T13:21:35.016Z,1564
2016-02-18T13:22:35.066Z,1568
2016-02-18T13:23:35.083Z,1580
2016-02-18T13:24:35.087Z,1608
2016-02-18T13:25:35.105Z,1520
2016-02-18T13:26:35.123Z,1332
2016-02-18T13:27:35.141Z,1156
2016-02-18T13:28:35.175Z,1160
2016-02-18T13:29:34.444Z,1216
2016-02-18T13:30:35.196Z,1180
2016-02-18T13:31:35.215Z,1144
2016-02-18T13:32:35.248Z,1276
2016-02-18T13:33:35.282Z,1340
2016-02-18T13:34:35.285Z,1276
2016-02-18T13:35:35.304Z,1204
2016-02-18T13:36:35.321Z,1056
2016-02-18T13:37:35.356Z,944
2016-02-18T13:38:35.374Z,832
2016-02-18T13:39:35.393Z,764
2016-02-18T13:40:35.426Z,820
2016-02-18T13:41:35.429Z,904
2016-02-18T13:42:35.448Z,960
2016-02-18T13:43:35.481Z,888
2016-02-18T13:44:35.500Z,856
2016-02-18T13:45:35.502Z,792
2016-02-18T13:46:35.521Z,740
2016-02-18T13:47:35.539Z,712
2016-02-18T13:48:35.604Z,672
2016-02-18T13:49:35.591Z,684
2016-02-18T13:50:35.609Z,684
2016-02-18T13:51:35.628Z,680
2016-02-18T13:52:35.646Z,628
2016-02-18T13:53:35.696Z,604
2016-02-18T13:54:35.683Z,572
2016-02-18T13:55:35.717Z,524
2016-02-18T13:56:35.750Z,516
2016-02-18T13:57:35.738Z,536
2016-02-18T13:58:35.772Z,580
2016-02-18T13:59:35.790Z,648
2016-02-18T14:00:35.793Z,688
2016-02-18T14:01:35.826Z,716
2016-02-18T14:02:36.455Z,720
2016-02-18T14:03:35.863Z,780
2016-02-18T14:04:35.729Z,856
2016-02-18T14:05:35.904Z,856
2016-02-18T14:06:35.922Z,856
2016-02-18T14:07:35.956Z,920
2016-02-18T14:08:35.974Z,1180
2016-02-18T14:09:35.992Z,1296